Time;durP1;ratioP1;P1;durP2;ratioP2;P2;SDS_P1;SDS_P2;PMS_P1;PMS_P2;Temp;Humidity;BMP_temperature;BMP_pressure;BME280_temperature;BME280_humidity;BME280_pressure;Samples;Min_cycle;Max_cycle;Signal;HPM_P1;HPM_P2
2024/02/16 00:01:41;;;;;;;5.20;1.92;;;11.60;99.90;;;;;;5081051;28;20039;-63
2024/02/16 00:04:07;;;;;;;9.30;3.38;;;11.60;99.90;;;;;;5079365;28;20182;-63
2024/02/16 00:06:33;;;;;;;3.95;1.73;;;11.60;99.90;;;;;;5110490;27;20040;-63
2024/02/16 00:08:59;;;;;;;3.17;1.80;;;11.50;99.90;;;;;;5102887;27;20040;-63
2024/02/16 00:11:25;;;;;;;3.85;1.55;;;11.50;99.90;;;;;;5075807;28;20088;-63
2024/02/16 00:13:51;;;;;;;4.47;1.75;;;11.50;99.90;;;;;;5074184;28;20035;-63
2024/02/16 00:16:17;;;;;;;6.40;2.20;;;11.50;99.90;;;;;;5095869;28;20145;-63
2024/02/16 00:18:43;;;;;;;2.42;1.38;;;11.50;99.90;;;;;;5081004;28;20079;-63
2024/02/16 00:21:09;;;;;;;6.43;2.00;;;11.50;99.90;;;;;;5098055;28;20055;-63
2024/02/16 00:23:34;;;;;;;5.88;1.90;;;11.50;99.90;;;;;;5077453;28;20039;-63
2024/02/16 00:26:01;;;;;;;3.78;1.55;;;11.50;99.90;;;;;;5093511;28;20036;-63
2024/02/16 00:28:27;;;;;;;6.10;2.00;;;11.70;99.90;;;;;;5075471;28;20043;-63
2024/02/16 00:30:52;;;;;;;4.22;1.75;;;11.40;99.90;;;;;;5094296;28;20485;-63
2024/02/16 00:33:18;;;;;;;5.55;1.75;;;11.50;99.90;;;;;;5078653;28;20044;-63
2024/02/16 00:35:47;;;;;;;3.72;2.08;;;11.50;99.90;;;;;;5088965;28;20046;-63
2024/02/16 00:38:13;;;;;;;3.42;1.70;;;11.50;99.90;;;;;;5097120;28;20043;-63
2024/02/16 00:40:43;;;;;;;4.28;1.90;;;11.50;99.90;;;;;;5077520;28;20058;-63
2024/02/16 00:43:09;;;;;;;3.92;1.70;;;11.50;99.90;;;;;;5069470;28;20071;-63
2024/02/16 00:45:35;;;;;;;3.38;1.90;;;11.50;99.90;;;;;;5077227;28;20032;-63
2024/02/16 00:48:01;;;;;;;5.85;1.52;;;11.50;99.90;;;;;;5081800;28;20043;-63
2024/02/16 00:50:27;;;;;;;4.07;1.75;;;11.40;99.90;;;;;;5068301;28;20102;-63
2024/02/16 00:52:53;;;;;;;3.95;1.65;;;11.40;99.90;;;;;;5095374;28;20064;-63
2024/02/16 00:55:19;;;;;;;3.88;1.50;;;11.40;99.90;;;;;;5096758;28;20070;-63
2024/02/16 00:57:44;;;;;;;4.65;1.77;;;11.40;99.90;;;;;;5087490;28;20032;-64
2024/02/16 01:00:11;;;;;;;3.83;1.33;;;11.40;99.90;;;;;;5076286;28;20409;-63
2024/02/16 01:02:36;;;;;;;5.45;1.73;;;11.30;99.90;;;;;;5060567;28;20047;-63
2024/02/16 01:05:02;;;;;;;6.82;1.65;;;11.30;99.90;;;;;;5091499;28;20032;-63
2024/02/16 01:07:28;;;;;;;5.57;1.60;;;11.30;99.90;;;;;;5077540;28;20538;-63
2024/02/16 01:09:56;;;;;;;4.25;1.30;;;11.30;99.90;;;;;;5096036;28;20071;-63
2024/02/16 01:12:22;;;;;;;4.15;1.75;;;11.30;99.90;;;;;;5096012;28;20114;-63
2024/02/16 01:14:47;;;;;;;5.93;1.75;;;11.30;99.90;;;;;;5109123;28;20134;-63
2024/02/16 01:17:13;;;;;;;6.25;2.00;;;11.50;99.90;;;;;;5076400;28;20043;-63
2024/02/16 01:19:40;;;;;;;5.70;2.08;;;11.30;99.90;;;;;;5104226;27;20479;-63
2024/02/16 01:22:05;;;;;;;5.00;2.00;;;11.20;99.90;;;;;;5084772;28;20070;-63
2024/02/16 01:24:31;;;;;;;4.45;1.83;;;11.20;99.90;;;;;;5080784;28;20036;-63
2024/02/16 01:26:57;;;;;;;3.53;1.35;;;11.20;99.90;;;;;;5097731;28;20051;-63
2024/02/16 01:29:23;;;;;;;4.65;1.65;;;11.20;99.90;;;;;;5108336;27;20036;-63
2024/02/16 01:31:49;;;;;;;5.50;1.75;;;11.20;99.90;;;;;;5096580;28;20036;-63
2024/02/16 01:34:14;;;;;;;5.78;2.33;;;11.20;99.90;;;;;;5072459;28;20055;-63
2024/02/16 01:36:40;;;;;;;2.95;1.60;;;11.20;99.90;;;;;;5080070;28;20039;-63
2024/02/16 01:39:06;;;;;;;5.60;2.17;;;11.10;99.90;;;;;;5096123;28;20485;-63
2024/02/16 01:41:32;;;;;;;3.28;1.38;;;11.10;99.90;;;;;;5098913;28;20051;-63
2024/02/16 01:43:58;;;;;;;4.97;1.50;;;11.10;99.90;;;;;;5109753;27;20051;-63
2024/02/16 01:46:26;;;;;;;3.60;1.83;;;11.10;99.90;;;;;;5093949;28;20040;-63
2024/02/16 01:48:52;;;;;;;3.88;1.58;;;11.10;99.90;;;;;;5078235;28;20486;-63
2024/02/16 01:51:18;;;;;;;5.70;1.80;;;11.10;99.90;;;;;;5099847;28;20085;-63
2024/02/16 01:53:44;;;;;;;4.05;1.42;;;11.00;99.90;;;;;;5101040;28;20051;-63
2024/02/16 01:56:10;;;;;;;5.13;2.05;;;11.10;99.90;;;;;;5080777;28;20052;-63
2024/02/16 01:58:36;;;;;;;7.20;2.13;;;11.00;99.90;;;;;;5075347;28;20047;-63
2024/02/16 02:01:01;;;;;;;4.07;1.85;;;11.00;99.90;;;;;;5076589;28;20075;-63
2024/02/16 02:03:28;;;;;;;3.78;1.77;;;11.00;99.90;;;;;;5077972;28;20055;-63
2024/02/16 02:05:56;;;;;;;4.20;2.33;;;11.00;99.90;;;;;;5077719;28;20088;-63
2024/02/16 02:08:21;;;;;;;5.57;2.42;;;11.00;99.90;;;;;;5080225;28;20521;-63
2024/02/16 02:10:47;;;;;;;7.50;3.00;;;10.90;99.90;;;;;;5100522;28;20036;-63
2024/02/16 02:13:13;;;;;;;7.00;2.38;;;11.00;99.90;;;;;;5079102;28;20474;-63
2024/02/16 02:15:38;;;;;;;3.83;1.95;;;10.90;99.90;;;;;;5080493;28;20043;-63
2024/02/16 02:18:04;;;;;;;3.65;1.88;;;10.90;99.90;;;;;;5093136;28;20122;-63
2024/02/16 02:20:30;;;;;;;4.60;2.33;;;10.90;99.90;;;;;;5094084;28;20035;-63
2024/02/16 02:22:56;;;;;;;5.22;1.77;;;10.90;99.90;;;;;;5081288;28;20082;-63
2024/02/16 02:25:21;;;;;;;3.85;1.98;;;10.80;99.90;;;;;;5097911;28;20063;-63
2024/02/16 02:27:47;;;;;;;6.28;2.20;;;10.80;99.90;;;;;;5094758;28;20044;-63
2024/02/16 02:30:13;;;;;;;5.88;2.22;;;10.80;99.90;;;;;;5078963;28;20028;-63
2024/02/16 02:32:38;;;;;;;6.32;2.00;;;10.80;99.90;;;;;;5080977;28;20727;-63
2024/02/16 02:35:05;;;;;;;3.55;1.80;;;10.80;99.90;;;;;;5093878;28;20093;-63
2024/02/16 02:37:31;;;;;;;4.93;1.95;;;10.80;99.90;;;;;;5094652;28;20035;-63
2024/02/16 02:39:56;;;;;;;6.32;2.00;;;10.70;99.90;;;;;;5080277;28;20043;-63
2024/02/16 02:42:22;;;;;;;6.05;2.38;;;10.70;99.90;;;;;;5095248;28;20044;-63
2024/02/16 02:44:50;;;;;;;7.30;2.22;;;10.70;99.90;;;;;;5091660;28;20109;-63
2024/02/16 02:47:17;;;;;;;4.63;2.35;;;10.70;99.90;;;;;;5075760;28;20047;-63
2024/02/16 02:49:43;;;;;;;4.32;1.80;;;10.70;99.90;;;;;;5090462;28;20046;-63
2024/02/16 02:52:09;;;;;;;2.42;1.80;;;10.70;99.90;;;;;;5082949;28;20118;-63
2024/02/16 02:54:35;;;;;;;5.95;2.72;;;10.60;99.90;;;;;;5076637;28;20111;-63
2024/02/16 02:57:02;;;;;;;5.95;2.00;;;10.60;99.90;;;;;;5077454;28;20044;-63
2024/02/16 02:59:27;;;;;;;5.88;1.95;;;10.70;99.90;;;;;;5093933;28;20401;-63
2024/02/16 03:01:53;;;;;;;4.82;2.03;;;10.60;99.90;;;;;;5081973;28;20048;-63
2024/02/16 03:04:18;;;;;;;5.50;2.35;;;10.60;99.90;;;;;;5074708;28;20039;-63
2024/02/16 03:06:44;;;;;;;3.85;1.80;;;10.60;99.90;;;;;;5080705;28;20089;-63
2024/02/16 03:09:12;;;;;;;5.32;1.95;;;10.70;99.90;;;;;;5079576;28;20050;-63
2024/02/16 03:11:38;;;;;;;3.78;1.85;;;10.60;99.90;;;;;;5078244;28;20054;-63
2024/02/16 03:14:05;;;;;;;4.30;1.50;;;10.60;99.90;;;;;;5092705;28;20036;-63
2024/02/16 03:16:31;;;;;;;6.90;1.85;;;10.60;99.90;;;;;;5097118;28;20047;-63
2024/02/16 03:18:57;;;;;;;4.15;1.50;;;10.70;99.90;;;;;;5056445;28;20035;-63
2024/02/16 03:21:22;;;;;;;4.50;2.28;;;10.60;99.90;;;;;;5079344;28;20595;-63
2024/02/16 03:23:48;;;;;;;3.55;1.67;;;10.60;99.90;;;;;;5080413;28;20071;-63
2024/02/16 03:26:17;;;;;;;5.85;2.10;;;10.60;99.90;;;;;;5105650;27;20093;-63
2024/02/16 03:28:47;;;;;;;4.00;1.92;;;10.60;99.90;;;;;;5074236;28;20086;-63
2024/02/16 03:31:22;;;;;;;4.10;1.98;;;10.50;99.90;;;;;;5073553;28;20032;-63
2024/02/16 03:33:48;;;;;;;5.13;1.90;;;10.60;99.90;;;;;;5110498;27;20805;-63
2024/02/16 03:36:15;;;;;;;8.50;2.03;;;10.60;99.90;;;;;;5075203;28;20070;-63
2024/02/16 03:38:44;;;;;;;7.03;2.10;;;10.60;99.90;;;;;;5075044;28;20474;-63
2024/02/16 03:41:14;;;;;;;2.78;1.83;;;10.60;99.90;;;;;;5109875;27;20048;-63
2024/02/16 03:43:40;;;;;;;2.92;1.45;;;10.60;99.90;;;;;;5060634;28;20036;-63
2024/02/16 03:46:06;;;;;;;4.03;1.35;;;10.70;99.90;;;;;;5094877;28;20024;-63
2024/02/16 03:48:32;;;;;;;5.55;2.40;;;10.70;99.90;;;;;;5096514;28;20492;-63
2024/02/16 03:50:57;;;;;;;7.32;1.80;;;10.60;99.90;;;;;;5077407;28;20382;-63
2024/02/16 03:53:23;;;;;;;4.80;1.80;;;10.50;99.90;;;;;;5059889;28;20133;-63
2024/02/16 03:55:49;;;;;;;5.47;2.05;;;10.60;99.90;;;;;;5074586;28;20043;-63
2024/02/16 03:58:15;;;;;;;5.00;1.75;;;10.60;99.90;;;;;;5096361;28;20036;-63
2024/02/16 04:00:41;;;;;;;3.92;1.80;;;10.50;99.90;;;;;;5089525;28;20032;-63
2024/02/16 04:03:07;;;;;;;5.13;1.92;;;10.60;99.90;;;;;;5076124;28;20072;-63
2024/02/16 04:05:34;;;;;;;6.40;1.80;;;10.50;99.90;;;;;;5093595;28;20474;-63
2024/02/16 04:08:02;;;;;;;3.15;1.55;;;10.60;99.90;;;;;;5072894;28;20059;-63
2024/02/16 04:10:31;;;;;;;6.72;1.85;;;10.50;99.90;;;;;;5105169;27;20039;-63
2024/02/16 04:12:56;;;;;;;7.05;2.35;;;10.50;99.90;;;;;;5076350;28;20086;-63
2024/02/16 04:15:22;;;;;;;1.75;1.35;;;10.60;99.90;;;;;;5073810;28;20620;-63
2024/02/16 04:17:49;;;;;;;6.03;2.08;;;10.60;99.90;;;;;;5107056;27;20051;-63
2024/02/16 04:20:15;;;;;;;2.92;1.58;;;10.60;99.90;;;;;;5107815;27;20059;-63
2024/02/16 04:22:42;;;;;;;2.45;1.60;;;10.60;99.90;;;;;;5066459;28;20044;-63
2024/02/16 04:25:08;;;;;;;3.75;1.65;;;10.60;99.90;;;;;;5111029;27;20078;-63
2024/02/16 04:27:34;;;;;;;4.10;1.55;;;10.60;99.90;;;;;;5090897;28;20032;-63
2024/02/16 04:30:00;;;;;;;2.35;1.48;;;10.60;99.90;;;;;;5077264;28;20074;-63
2024/02/16 04:32:26;;;;;;;5.20;2.10;;;10.60;99.90;;;;;;5107710;27;20043;-63
2024/02/16 04:34:52;;;;;;;4.90;1.63;;;10.60;99.90;;;;;;5074849;28;20394;-63
2024/02/16 04:37:18;;;;;;;4.63;1.40;;;10.60;99.90;;;;;;5075832;28;20044;-63
2024/02/16 04:39:44;;;;;;;5.55;1.70;;;10.60;99.90;;;;;;5077891;28;20427;-63
2024/02/16 04:42:11;;;;;;;5.00;1.50;;;10.70;99.90;;;;;;5076614;28;20403;-63
2024/02/16 04:44:40;;;;;;;4.35;1.60;;;10.70;99.90;;;;;;5072507;28;20131;-63
2024/02/16 04:47:06;;;;;;;4.28;1.15;;;10.70;99.90;;;;;;5075310;28;20185;-64
2024/02/16 04:49:31;;;;;;;4.68;1.65;;;10.70;99.90;;;;;;5078058;28;20043;-63
2024/02/16 04:51:57;;;;;;;3.28;1.33;;;10.70;99.90;;;;;;5079326;28;20494;-63
2024/02/16 04:54:23;;;;;;;4.03;1.70;;;10.70;99.90;;;;;;5078223;28;20040;-63
2024/02/16 04:56:49;;;;;;;3.10;1.33;;;10.60;99.90;;;;;;5096689;28;20039;-63
2024/02/16 04:59:16;;;;;;;7.35;1.40;;;10.80;99.90;;;;;;5099699;28;20505;-63
2024/02/16 05:01:45;;;;;;;2.45;1.20;;;10.70;99.90;;;;;;5080973;28;20071;-63
2024/02/16 05:04:16;;;;;;;10.07;2.33;;;10.70;99.90;;;;;;5075852;28;20039;-63
2024/02/16 05:06:46;;;;;;;6.95;2.42;;;10.70;99.90;;;;;;5108047;27;20394;-63
2024/02/16 05:09:11;;;;;;;4.93;1.48;;;10.70;99.90;;;;;;5079661;28;20401;-63
2024/02/16 05:11:37;;;;;;;7.25;2.22;;;10.60;99.90;;;;;;5097488;28;20123;-63
2024/02/16 05:14:03;;;;;;;4.45;1.65;;;10.70;99.90;;;;;;5099004;28;20032;-63
2024/02/16 05:16:29;;;;;;;1.92;1.38;;;10.70;99.90;;;;;;5096000;28;20063;-63
2024/02/16 05:18:58;;;;;;;3.13;1.42;;;10.70;99.90;;;;;;5099266;28;20028;-63
2024/02/16 05:21:24;;;;;;;2.00;1.30;;;10.70;99.90;;;;;;5080097;28;20482;-63
2024/02/16 05:23:49;;;;;;;3.15;1.35;;;10.70;99.90;;;;;;5079466;28;20036;-63
2024/02/16 05:26:15;;;;;;;4.03;1.73;;;10.70;99.90;;;;;;5079758;28;20056;-63
2024/02/16 05:28:41;;;;;;;5.28;1.42;;;10.70;99.90;;;;;;5081101;28;20049;-63
2024/02/16 05:31:18;;;;;;;3.17;1.40;;;10.70;99.90;;;;;;5095836;28;20067;-63
2024/02/16 05:33:47;;;;;;;4.82;1.98;;;10.80;99.90;;;;;;5078711;28;20054;-63
2024/02/16 05:36:12;;;;;;;5.63;1.33;;;10.80;99.90;;;;;;5079297;28;20128;-63
2024/02/16 05:38:43;;;;;;;2.70;1.20;;;10.80;99.90;;;;;;5078922;28;20131;-63
2024/02/16 05:41:08;;;;;;;4.13;1.55;;;10.80;99.90;;;;;;5111377;27;20471;-63
2024/02/16 05:43:34;;;;;;;2.20;1.58;;;10.90;99.90;;;;;;5080275;28;20042;-63
2024/02/16 05:46:00;;;;;;;3.70;2.03;;;10.90;99.90;;;;;;5094780;28;20040;-63
2024/02/16 05:48:29;;;;;;;4.40;1.77;;;10.90;99.90;;;;;;5093736;28;20061;-63
2024/02/16 05:51:00;;;;;;;3.45;1.50;;;11.00;99.90;;;;;;5093845;28;20040;-63
2024/02/16 05:53:27;;;;;;;3.60;1.75;;;10.90;99.90;;;;;;5077419;28;20470;-63
2024/02/16 05:55:53;;;;;;;2.75;1.40;;;11.00;99.90;;;;;;5079219;28;20075;-63
2024/02/16 05:58:18;;;;;;;3.97;1.65;;;11.00;99.90;;;;;;5097641;28;20074;-63
2024/02/16 06:00:47;;;;;;;2.45;1.48;;;11.00;99.90;;;;;;5074147;28;20126;-63
2024/02/16 06:03:13;;;;;;;3.53;1.35;;;11.00;99.90;;;;;;5074063;28;20610;-63
2024/02/16 06:05:40;;;;;;;3.70;1.67;;;11.00;99.90;;;;;;5092587;28;20036;-63
2024/02/16 06:08:07;;;;;;;3.53;1.52;;;11.10;99.90;;;;;;5056433;28;20891;-63
2024/02/16 06:10:33;;;;;;;3.95;1.50;;;11.10;99.90;;;;;;5074112;28;20427;-63
2024/02/16 06:12:59;;;;;;;2.90;1.67;;;11.10;99.90;;;;;;5077975;28;20081;-63
2024/02/16 06:15:26;;;;;;;4.75;1.27;;;11.10;99.90;;;;;;5076928;28;20134;-63
2024/02/16 06:17:52;;;;;;;3.28;1.63;;;11.10;99.90;;;;;;5077060;28;20151;-63
2024/02/16 06:20:18;;;;;;;5.03;1.70;;;11.00;99.90;;;;;;5109080;27;20044;-63
2024/02/16 06:22:44;;;;;;;2.28;1.40;;;11.10;99.90;;;;;;5078664;28;20039;-63
2024/02/16 06:25:10;;;;;;;5.85;1.90;;;11.00;99.90;;;;;;5077082;28;20048;-63
2024/02/16 06:27:36;;;;;;;2.20;1.30;;;11.00;99.90;;;;;;5074011;28;20040;-63
2024/02/16 06:30:03;;;;;;;3.25;1.70;;;11.00;99.90;;;;;;5056408;28;20421;-63
2024/02/16 06:32:31;;;;;;;4.72;1.98;;;11.00;99.90;;;;;;5076837;28;20105;-63
2024/02/16 06:34:57;;;;;;;2.85;1.73;;;10.90;99.90;;;;;;5069009;28;20044;-63
2024/02/16 06:37:22;;;;;;;3.63;1.70;;;10.90;99.90;;;;;;5083019;28;20032;-63
2024/02/16 06:39:48;;;;;;;2.13;1.52;;;11.00;99.90;;;;;;5066080;28;20516;-63
2024/02/16 06:42:14;;;;;;;2.83;1.60;;;10.90;99.90;;;;;;5092900;28;20489;-63
2024/02/16 06:44:40;;;;;;;1.77;1.42;;;10.90;99.90;;;;;;5077260;28;20481;-63
2024/02/16 06:47:06;;;;;;;2.85;2.03;;;11.00;99.90;;;;;;5095685;28;20039;-63
2024/02/16 06:49:32;;;;;;;3.28;1.92;;;11.00;99.90;;;;;;5072787;28;20077;-63
2024/02/16 06:51:58;;;;;;;2.75;1.30;;;10.90;99.90;;;;;;5101970;28;20120;-63
2024/02/16 06:54:26;;;;;;;5.05;1.42;;;10.80;99.90;;;;;;5096204;28;20047;-63
2024/02/16 06:56:52;;;;;;;2.83;1.65;;;10.90;99.90;;;;;;5093308;28;20367;-63
2024/02/16 06:59:18;;;;;;;2.88;1.63;;;10.90;99.90;;;;;;5079823;28;20047;-63
2024/02/16 07:01:44;;;;;;;4.00;1.63;;;10.90;99.90;;;;;;5085793;28;20035;-63
2024/02/16 07:04:10;;;;;;;3.40;2.08;;;10.90;99.90;;;;;;5069537;28;20547;-63
2024/02/16 07:06:35;;;;;;;3.33;1.60;;;10.90;99.90;;;;;;5095734;28;20154;-63
2024/02/16 07:09:05;;;;;;;3.13;1.83;;;10.90;99.90;;;;;;5077750;28;20518;-63
2024/02/16 07:11:30;;;;;;;2.60;1.40;;;10.90;99.90;;;;;;5094183;28;20039;-63
2024/02/16 07:13:56;;;;;;;1.88;1.60;;;11.00;99.90;;;;;;5078314;28;20386;-63
2024/02/16 07:16:22;;;;;;;3.35;2.05;;;11.00;99.90;;;;;;5094849;28;20043;-63
2024/02/16 07:18:47;;;;;;;4.20;1.63;;;11.00;99.90;;;;;;5076620;28;20031;-63
2024/02/16 07:21:13;;;;;;;3.35;2.10;;;11.00;99.90;;;;;;5074604;28;20068;-63
2024/02/16 07:23:39;;;;;;;3.15;1.75;;;11.10;99.90;;;;;;5072999;28;20048;-63
2024/02/16 07:26:05;;;;;;;5.30;1.85;;;11.10;99.90;;;;;;5097196;28;20046;-63
2024/02/16 07:28:31;;;;;;;8.70;2.03;;;11.10;99.90;;;;;;5106038;27;20044;-63
2024/02/16 07:30:57;;;;;;;3.10;1.73;;;11.10;99.90;;;;;;5099084;28;20036;-63
2024/02/16 07:33:24;;;;;;;3.15;1.80;;;11.10;99.90;;;;;;5077731;28;20534;-63
2024/02/16 07:35:51;;;;;;;4.30;1.50;;;11.10;99.90;;;;;;5091574;28;20116;-63
2024/02/16 07:38:16;;;;;;;4.03;2.22;;;11.10;99.90;;;;;;5107930;27;20471;-63
2024/02/16 07:40:45;;;;;;;4.10;1.88;;;11.20;99.90;;;;;;5076067;28;20046;-63
2024/02/16 07:43:11;;;;;;;2.67;1.40;;;11.10;99.90;;;;;;5079515;28;20068;-63
2024/02/16 07:45:37;;;;;;;4.80;1.90;;;11.20;99.90;;;;;;5099526;28;20032;-63
2024/02/16 07:48:05;;;;;;;2.95;1.80;;;11.10;99.90;;;;;;5083164;28;20747;-63
2024/02/16 07:50:30;;;;;;;5.47;1.98;;;11.20;99.90;;;;;;5079443;28;20066;-63
2024/02/16 07:52:56;;;;;;;4.57;1.70;;;11.20;99.90;;;;;;5078596;28;20413;-63
2024/02/16 07:55:24;;;;;;;4.40;1.60;;;11.20;99.90;;;;;;5079884;28;20093;-63
2024/02/16 07:57:51;;;;;;;4.07;1.95;;;11.20;99.90;;;;;;5067952;28;20067;-63
2024/02/16 08:00:18;;;;;;;3.95;1.92;;;11.30;99.90;;;;;;5103969;27;20039;-63
2024/02/16 08:02:44;;;;;;;4.20;1.60;;;11.20;99.90;;;;;;5074154;28;20810;-63
2024/02/16 08:05:13;;;;;;;2.80;1.67;;;11.20;99.90;;;;;;5096515;28;20034;-63
2024/02/16 08:07:42;;;;;;;2.60;2.00;;;11.20;99.90;;;;;;5093760;28;20032;-63
2024/02/16 08:10:08;;;;;;;3.75;1.83;;;11.20;99.90;;;;;;5088571;28;20081;-63
2024/02/16 08:12:35;;;;;;;3.85;2.05;;;11.20;99.90;;;;;;5077692;28;20044;-63
2024/02/16 08:15:03;;;;;;;4.03;2.13;;;11.20;99.90;;;;;;5091151;28;20052;-63
2024/02/16 08:17:29;;;;;;;2.80;1.80;;;11.20;99.90;;;;;;5090891;28;20387;-63
2024/02/16 08:19:55;;;;;;;4.75;2.20;;;11.20;99.90;;;;;;5070210;28;20028;-63
2024/02/16 08:22:21;;;;;;;2.97;1.65;;;11.30;99.90;;;;;;5093612;28;20098;-63
2024/02/16 08:24:49;;;;;;;5.60;1.98;;;11.30;99.90;;;;;;5090526;28;20036;-63
2024/02/16 08:27:15;;;;;;;4.03;1.73;;;11.30;99.90;;;;;;5078348;28;20057;-63
2024/02/16 08:29:41;;;;;;;3.50;2.33;;;11.40;99.90;;;;;;5092269;28;20038;-63
2024/02/16 08:32:08;;;;;;;5.80;2.60;;;11.40;99.90;;;;;;5074016;28;20078;-63
2024/02/16 08:34:36;;;;;;;2.75;1.73;;;11.40;99.90;;;;;;5077751;28;20093;-63
2024/02/16 08:37:03;;;;;;;2.83;1.70;;;11.40;99.90;;;;;;5074271;28;20158;-63
2024/02/16 08:39:30;;;;;;;4.72;2.15;;;11.40;99.90;;;;;;5093949;28;20371;-63
2024/02/16 08:41:56;;;;;;;3.33;1.95;;;11.40;99.90;;;;;;5078422;28;20048;-63
2024/02/16 08:44:22;;;;;;;2.83;1.67;;;11.50;99.90;;;;;;5078710;28;20995;-63
2024/02/16 08:46:49;;;;;;;4.22;2.38;;;11.50;99.90;;;;;;5098814;28;20035;-63
2024/02/16 08:49:15;;;;;;;3.08;2.15;;;11.50;99.90;;;;;;5079340;28;20032;-63
2024/02/16 08:51:41;;;;;;;4.22;1.88;;;11.50;99.90;;;;;;5078515;28;20039;-63
2024/02/16 08:54:07;;;;;;;3.45;2.00;;;11.70;99.90;;;;;;5098887;28;20500;-63
2024/02/16 08:56:34;;;;;;;4.18;1.65;;;11.70;99.90;;;;;;5078133;28;20493;-63
2024/02/16 08:58:59;;;;;;;3.88;2.08;;;11.70;99.90;;;;;;5074060;28;20044;-63
2024/02/16 09:01:36;;;;;;;4.78;2.33;;;11.80;99.90;;;;;;5076208;28;20047;-63
2024/02/16 09:04:02;;;;;;;5.90;2.03;;;11.80;99.90;;;;;;5096191;28;20111;-63
2024/02/16 09:06:28;;;;;;;2.78;1.98;;;11.80;99.90;;;;;;5076834;28;20487;-63
2024/02/16 09:08:54;;;;;;;4.20;2.33;;;11.90;99.90;;;;;;5078296;28;20071;-63
2024/02/16 09:11:20;;;;;;;4.53;1.98;;;11.90;99.90;;;;;;5078869;28;20036;-63
2024/02/16 09:13:47;;;;;;;5.68;3.80;;;11.90;99.90;;;;;;5077848;28;20055;-63
2024/02/16 09:16:12;;;;;;;6.15;2.42;;;12.00;99.90;;;;;;5089603;28;20066;-63
2024/02/16 09:18:38;;;;;;;4.60;2.22;;;12.00;99.90;;;;;;5089790;28;20943;-63
2024/02/16 09:21:05;;;;;;;6.65;2.47;;;12.10;99.90;;;;;;5070175;28;20035;-63
2024/02/16 09:23:32;;;;;;;7.30;2.45;;;12.10;99.90;;;;;;5115345;27;20046;-65
2024/02/16 09:25:59;;;;;;;4.97;2.40;;;12.20;99.90;;;;;;5079685;28;20036;-64
2024/02/16 09:28:24;;;;;;;3.00;2.15;;;12.20;99.90;;;;;;5093112;28;20409;-64
2024/02/16 09:30:50;;;;;;;3.60;2.20;;;12.30;99.90;;;;;;5073900;28;20111;-64
2024/02/16 09:33:16;;;;;;;4.68;2.00;;;12.30;99.90;;;;;;5098287;28;20043;-64
2024/02/16 09:35:42;;;;;;;3.53;2.15;;;12.40;99.90;;;;;;5096388;28;20047;-64
2024/02/16 09:38:10;;;;;;;3.95;2.70;;;12.50;99.90;;;;;;5071442;28;20043;-64
2024/02/16 09:40:36;;;;;;;3.92;2.40;;;12.50;99.90;;;;;;5077902;28;20122;-64
2024/02/16 09:43:02;;;;;;;7.20;3.08;;;12.60;99.90;;;;;;5079673;28;20458;-64
2024/02/16 09:45:30;;;;;;;5.63;2.38;;;12.70;99.90;;;;;;5100011;28;20107;-64
2024/02/16 09:47:57;;;;;;;4.72;2.88;;;12.70;99.90;;;;;;5112274;27;20109;-64
2024/02/16 09:50:23;;;;;;;4.25;2.78;;;12.80;99.90;;;;;;5084243;28;20048;-64
2024/02/16 09:52:50;;;;;;;3.25;2.47;;;12.80;99.90;;;;;;5117020;27;20043;-64
2024/02/16 09:55:17;;;;;;;3.92;2.47;;;12.90;99.90;;;;;;5100377;28;20032;-64
2024/02/16 09:57:44;;;;;;;8.70;2.72;;;12.90;99.90;;;;;;5096649;28;20399;-64
2024/02/16 10:00:10;;;;;;;5.50;2.60;;;13.00;99.90;;;;;;5113984;27;20036;-64
2024/02/16 10:02:46;;;;;;;6.20;2.42;;;13.00;99.90;;;;;;5080443;28;20040;-64
2024/02/16 10:05:17;;;;;;;7.47;3.30;;;13.00;99.90;;;;;;5095306;28;20039;-64
2024/02/16 10:07:44;;;;;;;4.18;3.00;;;13.00;99.90;;;;;;5099454;28;20509;-64
2024/02/16 10:10:26;;;;;;;6.32;3.28;;;13.00;99.90;;;;;;5078237;28;20040;-64
2024/02/16 10:13:03;;;;;;;5.40;2.80;;;13.10;99.90;;;;;;5094642;28;20040;-64
2024/02/16 10:15:30;;;;;;;4.40;2.90;;;13.20;99.90;;;;;;5079932;28;20049;-64
2024/02/16 10:17:59;;;;;;;6.15;2.55;;;13.40;99.90;;;;;;5108467;27;20036;-64
2024/02/16 10:20:25;;;;;;;3.80;3.03;;;13.30;99.90;;;;;;5076662;28;20115;-64
2024/02/16 10:23:03;;;;;;;4.82;2.80;;;13.30;99.90;;;;;;5078484;28;20123;-64
2024/02/16 10:25:28;;;;;;;5.75;3.03;;;13.30;99.90;;;;;;5073826;28;20036;-64
2024/02/16 10:27:57;;;;;;;6.32;2.90;;;13.30;99.90;;;;;;5097656;28;20508;-64
2024/02/16 10:30:28;;;;;;;7.75;3.35;;;13.40;99.90;;;;;;5078528;28;20054;-64
2024/02/16 10:32:54;;;;;;;3.97;2.83;;;13.40;99.90;;;;;;5108592;27;20046;-64
2024/02/16 10:35:24;;;;;;;6.63;3.60;;;13.50;99.90;;;;;;5079529;28;20498;-64
2024/02/16 10:37:50;;;;;;;6.60;3.10;;;13.50;99.90;;;;;;5099244;28;20078;-64
2024/02/16 10:40:19;;;;;;;5.15;3.42;;;13.50;99.90;;;;;;5095668;28;20470;-64
2024/02/16 10:42:46;;;;;;;6.00;3.47;;;13.50;99.90;;;;;;5110421;27;20040;-64
2024/02/16 10:45:15;;;;;;;5.45;3.67;;;13.50;99.90;;;;;;5078575;28;20075;-64
2024/02/16 10:47:41;;;;;;;4.10;3.47;;;13.40;99.90;;;;;;5080303;28;20044;-64
2024/02/16 10:50:08;;;;;;;6.80;4.05;;;13.40;99.90;;;;;;5077140;28;20046;-64
2024/02/16 10:52:36;;;;;;;5.00;3.05;;;13.30;99.90;;;;;;5076099;28;20469;-64
2024/02/16 10:55:03;;;;;;;5.97;4.55;;;13.30;99.90;;;;;;5115091;27;20055;-64
2024/02/16 10:57:29;;;;;;;5.22;4.05;;;13.30;99.90;;;;;;5096801;28;20429;-64
2024/02/16 10:59:56;;;;;;;6.95;5.35;;;13.20;99.90;;;;;;5095590;28;20043;-64
2024/02/16 11:02:23;;;;;;;5.32;4.50;;;13.30;99.90;;;;;;5091402;28;20048;-64
2024/02/16 11:04:51;;;;;;;5.70;5.10;;;13.20;99.90;;;;;;5108311;27;20065;-64
2024/02/16 11:07:18;;;;;;;8.07;4.80;;;13.20;99.90;;;;;;5075866;28;20634;-64
2024/02/16 11:09:45;;;;;;;8.68;5.18;;;13.20;99.90;;;;;;5094206;28;20358;-64
2024/02/16 11:12:15;;;;;;;10.52;5.45;;;13.10;99.90;;;;;;5093528;28;20062;-64
2024/02/16 11:14:42;;;;;;;8.02;5.35;;;13.10;99.90;;;;;;5081226;28;20130;-64
2024/02/16 11:17:19;;;;;;;8.43;6.00;;;13.00;99.90;;;;;;5091377;28;20048;-64
2024/02/16 11:19:46;;;;;;;9.63;7.03;;;12.90;99.90;;;;;;5071793;28;20044;-64
2024/02/16 11:22:18;;;;;;;11.80;7.57;;;13.00;99.90;;;;;;5109799;27;20139;-64
2024/02/16 11:24:49;;;;;;;9.77;6.75;;;12.80;99.90;;;;;;5077806;28;20115;-64
2024/02/16 11:27:18;;;;;;;11.32;7.07;;;12.80;99.90;;;;;;5092398;28;20047;-64
2024/02/16 11:29:45;;;;;;;11.75;7.75;;;12.70;99.90;;;;;;5066980;28;20118;-64
2024/02/16 11:32:10;;;;;;;11.10;7.50;;;12.80;99.90;;;;;;5081822;28;20039;-64
2024/02/16 11:34:37;;;;;;;15.48;9.23;;;12.70;99.90;;;;;;5093176;28;20043;-64
2024/02/16 11:37:04;;;;;;;12.27;7.95;;;12.70;99.90;;;;;;5072572;28;20444;-64
2024/02/16 11:39:31;;;;;;;14.02;8.00;;;12.50;99.90;;;;;;5103959;27;20036;-64
2024/02/16 11:42:10;;;;;;;12.52;8.52;;;12.40;99.90;;;;;;5077056;28;20035;-64
2024/02/16 11:44:39;;;;;;;10.90;7.70;;;12.40;99.90;;;;;;5092342;28;20055;-64
2024/02/16 11:47:06;;;;;;;14.63;8.50;;;12.30;99.90;;;;;;5076647;28;20039;-64
2024/02/16 11:49:32;;;;;;;11.00;6.95;;;12.20;99.90;;;;;;5059998;28;20036;-64
2024/02/16 11:52:04;;;;;;;13.30;8.55;;;12.20;99.90;;;;;;5077168;28;20045;-64
2024/02/16 11:54:31;;;;;;;13.20;7.78;;;12.10;99.90;;;;;;5091846;28;20512;-64
2024/02/16 11:56:57;;;;;;;10.35;7.07;;;12.10;99.90;;;;;;5115194;27;20057;-64
2024/02/16 11:59:23;;;;;;;11.90;7.15;;;12.10;99.90;;;;;;5076429;28;20440;-64
2024/02/16 12:01:52;;;;;;;9.50;6.57;;;12.00;99.90;;;;;;5078805;28;20035;-64
2024/02/16 12:04:26;;;;;;;11.15;6.40;;;11.90;99.90;;;;;;5074181;28;20071;-64
2024/02/16 12:07:02;;;;;;;10.18;5.32;;;11.90;99.90;;;;;;5090446;28;20085;-64
2024/02/16 12:09:28;;;;;;;8.32;5.40;;;11.90;99.90;;;;;;5105703;27;20043;-64
2024/02/16 12:11:55;;;;;;;8.95;5.32;;;11.80;99.90;;;;;;5080044;28;20110;-64
2024/02/16 12:14:24;;;;;;;5.07;3.88;;;11.80;99.90;;;;;;5080574;28;20042;-64
2024/02/16 12:16:51;;;;;;;6.25;4.15;;;11.70;99.90;;;;;;5100584;28;20036;-64
2024/02/16 12:19:20;;;;;;;7.20;4.53;;;11.80;99.90;;;;;;5089218;28;20518;-64
2024/02/16 12:21:49;;;;;;;9.45;4.50;;;11.70;99.90;;;;;;5055101;28;20048;-64
2024/02/16 12:24:15;;;;;;;5.50;4.28;;;11.80;99.90;;;;;;5072303;28;20122;-64
2024/02/16 12:26:41;;;;;;;9.05;4.60;;;11.80;99.90;;;;;;5078504;28;20154;-64
2024/02/16 12:29:06;;;;;;;7.97;4.68;;;11.80;99.90;;;;;;5077857;28;20036;-64
2024/02/16 12:31:32;;;;;;;8.68;4.10;;;11.70;99.90;;;;;;5079234;28;20031;-64
2024/02/16 12:33:58;;;;;;;6.03;3.97;;;11.90;99.90;;;;;;5078253;28;20086;-64
2024/02/16 12:36:23;;;;;;;8.98;4.60;;;11.70;99.90;;;;;;5095738;28;20074;-64
2024/02/16 12:38:50;;;;;;;7.32;4.50;;;11.70;99.90;;;;;;5109971;27;20047;-64
2024/02/16 12:41:15;;;;;;;8.38;4.68;;;11.70;99.90;;;;;;5091931;28;20032;-64
2024/02/16 12:43:41;;;;;;;7.72;4.00;;;11.70;99.90;;;;;;5076606;28;20040;-64